sensor_id;sensor_type;location;lat;lon;timestamp;pressure;altitude;pressure_sealevel;temperature;humidity
53960;BME280;39866;48.638;-2.020;2023-07-30T00:01:32;101339.34;;;20.96;61.31
53960;BME280;39866;48.638;-2.020;2023-07-30T00:03:58;101348.44;;;20.95;61.26
53960;BME280;39866;48.638;-2.020;2023-07-30T00:06:23;101338.00;;;21.03;61.01
53960;BME280;39866;48.638;-2.020;2023-07-30T00:08:49;101342.16;;;20.94;60.50
53960;BME280;39866;48.638;-2.020;2023-07-30T00:11:14;101327.72;;;20.94;61.28
53960;BME280;39866;48.638;-2.020;2023-07-30T00:13:39;101328.69;;;20.93;61.02
53960;BME280;39866;48.638;-2.020;2023-07-30T00:16:05;101336.06;;;20.91;61.08
53960;BME280;39866;48.638;-2.020;2023-07-30T00:18:30;101328.63;;;20.94;61.23
53960;BME280;39866;48.638;-2.020;2023-07-30T00:20:55;101328.00;;;20.89;60.89
53960;BME280;39866;48.638;-2.020;2023-07-30T00:23:21;101324.38;;;20.90;61.36
53960;BME280;39866;48.638;-2.020;2023-07-30T00:25:46;101323.28;;;20.93;61.46
53960;BME280;39866;48.638;-2.020;2023-07-30T00:28:11;101329.47;;;20.95;60.84
53960;BME280;39866;48.638;-2.020;2023-07-30T00:30:37;101319.81;;;20.91;60.77
53960;BME280;39866;48.638;-2.020;2023-07-30T00:33:02;101327.16;;;20.89;60.88
53960;BME280;39866;48.638;-2.020;2023-07-30T00:35:27;101334.69;;;20.84;60.63
53960;BME280;39866;48.638;-2.020;2023-07-30T00:37:53;101329.97;;;20.87;61.38
53960;BME280;39866;48.638;-2.020;2023-07-30T00:40:18;101322.03;;;20.84;61.15
53960;BME280;39866;48.638;-2.020;2023-07-30T00:42:43;101331.00;;;20.85;60.97
53960;BME280;39866;48.638;-2.020;2023-07-30T00:45:09;101323.66;;;20.72;61.39
53960;BME280;39866;48.638;-2.020;2023-07-30T00:47:39;101328.09;;;20.73;60.97
53960;BME280;39866;48.638;-2.020;2023-07-30T00:50:07;101331.69;;;20.74;61.31
53960;BME280;39866;48.638;-2.020;2023-07-30T00:52:32;101342.59;;;20.72;61.16
53960;BME280;39866;48.638;-2.020;2023-07-30T00:54:59;101334.19;;;20.63;61.59
53960;BME280;39866;48.638;-2.020;2023-07-30T00:57:25;101339.31;;;20.67;61.53
53960;BME280;39866;48.638;-2.020;2023-07-30T00:59:51;101330.22;;;20.68;61.68
53960;BME280;39866;48.638;-2.020;2023-07-30T01:02:17;101336.03;;;20.62;62.29
53960;BME280;39866;48.638;-2.020;2023-07-30T01:04:43;101335.34;;;20.73;61.74
53960;BME280;39866;48.638;-2.020;2023-07-30T01:07:09;101334.00;;;20.80;62.18
53960;BME280;39866;48.638;-2.020;2023-07-30T01:09:34;101343.78;;;20.83;62.54
53960;BME280;39866;48.638;-2.020;2023-07-30T01:12:01;101339.22;;;20.83;61.79
53960;BME280;39866;48.638;-2.020;2023-07-30T01:14:27;101329.28;;;20.84;62.50
53960;BME280;39866;48.638;-2.020;2023-07-30T01:16:54;101328.59;;;20.80;61.85
53960;BME280;39866;48.638;-2.020;2023-07-30T01:19:19;101339.22;;;20.83;61.84
53960;BME280;39866;48.638;-2.020;2023-07-30T01:21:44;101334.22;;;20.91;61.72
53960;BME280;39866;48.638;-2.020;2023-07-30T01:24:10;101333.34;;;20.91;61.84
53960;BME280;39866;48.638;-2.020;2023-07-30T01:26:43;101330.72;;;20.75;62.48
53960;BME280;39866;48.638;-2.020;2023-07-30T01:29:14;101338.91;;;20.73;62.54
53960;BME280;39866;48.638;-2.020;2023-07-30T01:31:42;101338.03;;;20.73;62.91
53960;BME280;39866;48.638;-2.020;2023-07-30T01:34:09;101338.25;;;20.70;62.78
53960;BME280;39866;48.638;-2.020;2023-07-30T01:36:37;101346.38;;;20.70;62.93
53960;BME280;39866;48.638;-2.020;2023-07-30T01:39:04;101343.00;;;20.66;62.86
53960;BME280;39866;48.638;-2.020;2023-07-30T01:41:31;101353.59;;;20.69;62.88
53960;BME280;39866;48.638;-2.020;2023-07-30T01:43:56;101346.44;;;20.68;62.59
53960;BME280;39866;48.638;-2.020;2023-07-30T01:46:21;101354.97;;;20.76;62.19
53960;BME280;39866;48.638;-2.020;2023-07-30T01:48:47;101349.56;;;20.76;62.44
53960;BME280;39866;48.638;-2.020;2023-07-30T01:51:12;101352.94;;;20.80;62.50
53960;BME280;39866;48.638;-2.020;2023-07-30T01:53:37;101351.69;;;20.71;62.53
53960;BME280;39866;48.638;-2.020;2023-07-30T01:56:03;101352.44;;;20.73;62.53
53960;BME280;39866;48.638;-2.020;2023-07-30T01:58:28;101351.69;;;20.71;62.87
53960;BME280;39866;48.638;-2.020;2023-07-30T02:00:54;101342.66;;;20.57;62.97
53960;BME280;39866;48.638;-2.020;2023-07-30T02:03:19;101343.94;;;20.65;63.02
53960;BME280;39866;48.638;-2.020;2023-07-30T02:05:44;101345.97;;;20.62;63.31
53960;BME280;39866;48.638;-2.020;2023-07-30T02:08:10;101345.47;;;20.69;63.05
53960;BME280;39866;48.638;-2.020;2023-07-30T02:10:35;101340.56;;;20.76;62.68
53960;BME280;39866;48.638;-2.020;2023-07-30T02:13:00;101346.78;;;20.78;63.08
53960;BME280;39866;48.638;-2.020;2023-07-30T02:15:26;101339.88;;;20.72;62.67
53960;BME280;39866;48.638;-2.020;2023-07-30T02:17:51;101347.44;;;20.82;62.50
53960;BME280;39866;48.638;-2.020;2023-07-30T02:20:16;101343.56;;;20.86;62.46
53960;BME280;39866;48.638;-2.020;2023-07-30T02:22:42;101357.59;;;20.78;62.41
53960;BME280;39866;48.638;-2.020;2023-07-30T02:25:07;101354.09;;;20.76;62.39
53960;BME280;39866;48.638;-2.020;2023-07-30T02:27:33;101354.69;;;20.67;62.86
53960;BME280;39866;48.638;-2.020;2023-07-30T02:29:58;101357.66;;;20.62;62.59
53960;BME280;39866;48.638;-2.020;2023-07-30T02:32:23;101341.22;;;20.65;63.02
53960;BME280;39866;48.638;-2.020;2023-07-30T02:34:49;101350.13;;;20.67;63.12
53960;BME280;39866;48.638;-2.020;2023-07-30T02:37:14;101344.03;;;20.64;62.77
53960;BME280;39866;48.638;-2.020;2023-07-30T02:39:39;101343.75;;;20.68;63.11
53960;BME280;39866;48.638;-2.020;2023-07-30T02:42:06;101343.84;;;20.67;63.31
53960;BME280;39866;48.638;-2.020;2023-07-30T02:44:31;101345.47;;;20.69;63.74
53960;BME280;39866;48.638;-2.020;2023-07-30T02:46:56;101337.38;;;20.69;63.04
53960;BME280;39866;48.638;-2.020;2023-07-30T02:49:22;101346.63;;;20.65;63.35
53960;BME280;39866;48.638;-2.020;2023-07-30T02:51:47;101337.56;;;20.66;63.64
53960;BME280;39866;48.638;-2.020;2023-07-30T02:54:14;101337.75;;;20.63;63.47
53960;BME280;39866;48.638;-2.020;2023-07-30T02:56:41;101354.34;;;20.57;63.20
53960;BME280;39866;48.638;-2.020;2023-07-30T02:59:06;101352.44;;;20.59;63.21
53960;BME280;39866;48.638;-2.020;2023-07-30T03:01:32;101363.06;;;20.62;63.07
53960;BME280;39866;48.638;-2.020;2023-07-30T03:03:57;101368.38;;;20.64;63.17
53960;BME280;39866;48.638;-2.020;2023-07-30T03:06:22;101368.47;;;20.62;63.35
53960;BME280;39866;48.638;-2.020;2023-07-30T03:08:48;101370.31;;;20.62;63.47
53960;BME280;39866;48.638;-2.020;2023-07-30T03:11:13;101370.78;;;20.54;63.00
53960;BME280;39866;48.638;-2.020;2023-07-30T03:13:39;101369.03;;;20.53;63.37
53960;BME280;39866;48.638;-2.020;2023-07-30T03:16:04;101366.94;;;20.58;62.76
53960;BME280;39866;48.638;-2.020;2023-07-30T03:18:29;101366.66;;;20.63;63.16
53960;BME280;39866;48.638;-2.020;2023-07-30T03:21:01;101366.38;;;20.67;62.92
53960;BME280;39866;48.638;-2.020;2023-07-30T03:23:27;101362.22;;;20.76;63.15
53960;BME280;39866;48.638;-2.020;2023-07-30T03:25:52;101374.31;;;20.70;63.00
53960;BME280;39866;48.638;-2.020;2023-07-30T03:28:18;101380.88;;;20.66;63.16
53960;BME280;39866;48.638;-2.020;2023-07-30T03:30:43;101375.97;;;20.57;63.18
53960;BME280;39866;48.638;-2.020;2023-07-30T03:33:08;101388.75;;;20.55;63.37
53960;BME280;39866;48.638;-2.020;2023-07-30T03:35:34;101381.78;;;20.51;63.58
53960;BME280;39866;48.638;-2.020;2023-07-30T03:37:59;101384.16;;;20.41;63.91
53960;BME280;39866;48.638;-2.020;2023-07-30T03:40:24;101385.13;;;20.24;64.30
53960;BME280;39866;48.638;-2.020;2023-07-30T03:42:50;101384.88;;;20.29;64.36
53960;BME280;39866;48.638;-2.020;2023-07-30T03:45:15;101391.31;;;20.26;64.64
53960;BME280;39866;48.638;-2.020;2023-07-30T03:47:41;101397.59;;;20.27;64.68
53960;BME280;39866;48.638;-2.020;2023-07-30T03:50:06;101401.72;;;20.18;64.36
53960;BME280;39866;48.638;-2.020;2023-07-30T03:52:32;101401.13;;;20.13;64.80
53960;BME280;39866;48.638;-2.020;2023-07-30T03:54:57;101400.41;;;20.10;64.87
53960;BME280;39866;48.638;-2.020;2023-07-30T03:57:22;101397.63;;;20.11;64.70
53960;BME280;39866;48.638;-2.020;2023-07-30T03:59:47;101401.16;;;20.27;64.22
53960;BME280;39866;48.638;-2.020;2023-07-30T04:02:13;101389.94;;;20.19;64.23
53960;BME280;39866;48.638;-2.020;2023-07-30T04:04:41;101397.34;;;20.16;64.45
53960;BME280;39866;48.638;-2.020;2023-07-30T04:07:08;101401.53;;;20.21;64.36
53960;BME280;39866;48.638;-2.020;2023-07-30T04:09:34;101401.88;;;20.31;64.30
53960;BME280;39866;48.638;-2.020;2023-07-30T04:11:59;101400.81;;;20.34;64.13
53960;BME280;39866;48.638;-2.020;2023-07-30T04:14:24;101403.44;;;20.35;64.45
53960;BME280;39866;48.638;-2.020;2023-07-30T04:16:50;101396.59;;;20.44;64.38
53960;BME280;39866;48.638;-2.020;2023-07-30T04:19:15;101400.44;;;20.40;64.29
53960;BME280;39866;48.638;-2.020;2023-07-30T04:21:40;101401.50;;;20.37;64.36
53960;BME280;39866;48.638;-2.020;2023-07-30T04:24:06;101401.41;;;20.39;64.36
53960;BME280;39866;48.638;-2.020;2023-07-30T04:26:31;101397.38;;;20.46;64.52
53960;BME280;39866;48.638;-2.020;2023-07-30T04:28:56;101398.97;;;20.50;64.45
53960;BME280;39866;48.638;-2.020;2023-07-30T04:31:22;101398.44;;;20.43;65.02
53960;BME280;39866;48.638;-2.020;2023-07-30T04:33:47;101397.47;;;20.44;64.99
53960;BME280;39866;48.638;-2.020;2023-07-30T04:36:12;101407.25;;;20.47;64.87
53960;BME280;39866;48.638;-2.020;2023-07-30T04:38:38;101398.16;;;20.48;64.91
53960;BME280;39866;48.638;-2.020;2023-07-30T04:41:03;101403.72;;;20.45;64.42
53960;BME280;39866;48.638;-2.020;2023-07-30T04:43:28;101404.88;;;20.41;64.38
53960;BME280;39866;48.638;-2.020;2023-07-30T04:45:54;101404.81;;;20.42;64.54
53960;BME280;39866;48.638;-2.020;2023-07-30T04:48:19;101407.84;;;20.36;64.73
53960;BME280;39866;48.638;-2.020;2023-07-30T04:50:44;101412.56;;;20.33;64.47
53960;BME280;39866;48.638;-2.020;2023-07-30T04:53:10;101413.66;;;20.30;64.47
53960;BME280;39866;48.638;-2.020;2023-07-30T04:55:35;101409.00;;;20.32;64.39
53960;BME280;39866;48.638;-2.020;2023-07-30T04:58:00;101407.00;;;20.36;64.56
53960;BME280;39866;48.638;-2.020;2023-07-30T05:00:26;101418.84;;;20.49;64.88
53960;BME280;39866;48.638;-2.020;2023-07-30T05:02:51;101419.47;;;20.38;64.57
53960;BME280;39866;48.638;-2.020;2023-07-30T05:05:16;101425.78;;;20.23;65.12
53960;BME280;39866;48.638;-2.020;2023-07-30T05:07:42;101431.69;;;20.45;64.60
53960;BME280;39866;48.638;-2.020;2023-07-30T05:10:07;101417.31;;;20.29;64.72
53960;BME280;39866;48.638;-2.020;2023-07-30T05:12:36;101426.66;;;20.23;64.90
53960;BME280;39866;48.638;-2.020;2023-07-30T05:15:01;101433.78;;;20.24;64.50
53960;BME280;39866;48.638;-2.020;2023-07-30T05:17:26;101438.25;;;20.25;64.83
53960;BME280;39866;48.638;-2.020;2023-07-30T05:19:52;101439.44;;;20.36;64.91
53960;BME280;39866;48.638;-2.020;2023-07-30T05:22:17;101434.59;;;20.11;65.12
53960;BME280;39866;48.638;-2.020;2023-07-30T05:24:42;101434.72;;;20.39;64.75
53960;BME280;39866;48.638;-2.020;2023-07-30T05:27:08;101442.31;;;20.48;64.49
53960;BME280;39866;48.638;-2.020;2023-07-30T05:29:33;101446.53;;;20.54;64.45
53960;BME280;39866;48.638;-2.020;2023-07-30T05:31:58;101448.78;;;20.62;64.19
53960;BME280;39866;48.638;-2.020;2023-07-30T05:34:24;101441.13;;;20.54;63.82
53960;BME280;39866;48.638;-2.020;2023-07-30T05:36:49;101439.00;;;20.59;63.64
53960;BME280;39866;48.638;-2.020;2023-07-30T05:39:14;101437.25;;;20.58;63.61
53960;BME280;39866;48.638;-2.020;2023-07-30T05:41:40;101432.16;;;20.68;63.41
53960;BME280;39866;48.638;-2.020;2023-07-30T05:44:05;101428.91;;;20.77;63.41
53960;BME280;39866;48.638;-2.020;2023-07-30T05:46:30;101441.16;;;20.68;63.20
53960;BME280;39866;48.638;-2.020;2023-07-30T05:48:56;101437.25;;;20.58;63.92
53960;BME280;39866;48.638;-2.020;2023-07-30T05:51:21;101444.75;;;20.53;64.03
53960;BME280;39866;48.638;-2.020;2023-07-30T05:53:47;101445.44;;;20.57;64.07
53960;BME280;39866;48.638;-2.020;2023-07-30T05:56:12;101440.84;;;20.59;63.93
53960;BME280;39866;48.638;-2.020;2023-07-30T05:58:39;101438.97;;;20.75;63.18
53960;BME280;39866;48.638;-2.020;2023-07-30T06:01:04;101447.34;;;20.70;63.53
53960;BME280;39866;48.638;-2.020;2023-07-30T06:03:30;101445.41;;;20.72;63.41
53960;BME280;39866;48.638;-2.020;2023-07-30T06:05:55;101445.97;;;20.63;63.38
53960;BME280;39866;48.638;-2.020;2023-07-30T06:08:20;101446.56;;;20.68;63.15
53960;BME280;39866;48.638;-2.020;2023-07-30T06:10:45;101443.28;;;20.77;63.18
53960;BME280;39866;48.638;-2.020;2023-07-30T06:13:12;101451.06;;;20.84;62.78
53960;BME280;39866;48.638;-2.020;2023-07-30T06:15:37;101452.63;;;20.88;63.04
53960;BME280;39866;48.638;-2.020;2023-07-30T06:18:03;101460.03;;;20.84;63.35
53960;BME280;39866;48.638;-2.020;2023-07-30T06:20:29;101455.69;;;20.82;63.19
53960;BME280;39866;48.638;-2.020;2023-07-30T06:22:54;101463.22;;;20.76;63.03
53960;BME280;39866;48.638;-2.020;2023-07-30T06:25:20;101464.94;;;20.77;63.20
53960;BME280;39866;48.638;-2.020;2023-07-30T06:27:45;101459.13;;;20.69;62.85
53960;BME280;39866;48.638;-2.020;2023-07-30T06:30:11;101463.25;;;20.61;62.99
53960;BME280;39866;48.638;-2.020;2023-07-30T06:32:36;101463.59;;;20.70;62.94
53960;BME280;39866;48.638;-2.020;2023-07-30T06:35:02;101463.59;;;20.70;63.26
53960;BME280;39866;48.638;-2.020;2023-07-30T06:37:28;101476.25;;;20.70;63.16
53960;BME280;39866;48.638;-2.020;2023-07-30T06:39:53;101471.13;;;20.34;63.92
53960;BME280;39866;48.638;-2.020;2023-07-30T06:42:19;101470.75;;;20.40;63.82
53960;BME280;39866;48.638;-2.020;2023-07-30T06:44:44;101473.72;;;20.67;62.82
53960;BME280;39866;48.638;-2.020;2023-07-30T06:47:10;101470.63;;;20.73;62.83
53960;BME280;39866;48.638;-2.020;2023-07-30T06:49:35;101475.75;;;20.77;62.78
53960;BME280;39866;48.638;-2.020;2023-07-30T06:52:00;101483.47;;;20.69;62.98
53960;BME280;39866;48.638;-2.020;2023-07-30T06:54:27;101488.63;;;20.74;62.97
53960;BME280;39866;48.638;-2.020;2023-07-30T06:56:53;101483.28;;;20.72;63.08
53960;BME280;39866;48.638;-2.020;2023-07-30T06:59:18;101497.97;;;20.68;63.23
53960;BME280;39866;48.638;-2.020;2023-07-30T07:01:44;101488.31;;;20.48;63.43
53960;BME280;39866;48.638;-2.020;2023-07-30T07:04:09;101487.97;;;20.39;63.88
53960;BME280;39866;48.638;-2.020;2023-07-30T07:06:34;101487.69;;;20.59;64.04
53960;BME280;39866;48.638;-2.020;2023-07-30T07:09:00;101493.00;;;20.61;63.81
53960;BME280;39866;48.638;-2.020;2023-07-30T07:11:25;101487.50;;;20.78;62.99
53960;BME280;39866;48.638;-2.020;2023-07-30T07:13:51;101499.06;;;20.80;62.77
53960;BME280;39866;48.638;-2.020;2023-07-30T07:16:16;101503.19;;;20.87;62.35
53960;BME280;39866;48.638;-2.020;2023-07-30T07:18:41;101493.91;;;20.91;61.62
53960;BME280;39866;48.638;-2.020;2023-07-30T07:21:07;101510.19;;;20.75;62.36
53960;BME280;39866;48.638;-2.020;2023-07-30T07:23:33;101511.03;;;20.76;62.13
53960;BME280;39866;48.638;-2.020;2023-07-30T07:25:58;101503.06;;;20.89;61.92
53960;BME280;39866;48.638;-2.020;2023-07-30T07:28:23;101515.38;;;20.94;61.74
53960;BME280;39866;48.638;-2.020;2023-07-30T07:30:49;101516.78;;;20.86;61.38
53960;BME280;39866;48.638;-2.020;2023-07-30T07:33:14;101512.41;;;20.99;61.15
53960;BME280;39866;48.638;-2.020;2023-07-30T07:35:40;101519.53;;;21.00;60.82
53960;BME280;39866;48.638;-2.020;2023-07-30T07:38:05;101521.47;;;20.98;60.52
53960;BME280;39866;48.638;-2.020;2023-07-30T07:40:36;101517.47;;;20.89;60.89
53960;BME280;39866;48.638;-2.020;2023-07-30T07:43:01;101516.25;;;20.95;60.84
53960;BME280;39866;48.638;-2.020;2023-07-30T07:45:27;101524.13;;;20.84;60.51
53960;BME280;39866;48.638;-2.020;2023-07-30T07:47:52;101523.00;;;21.02;60.69
53960;BME280;39866;48.638;-2.020;2023-07-30T07:50:17;101526.09;;;20.96;60.90
53960;BME280;39866;48.638;-2.020;2023-07-30T07:52:43;101527.91;;;21.11;60.78
53960;BME280;39866;48.638;-2.020;2023-07-30T07:55:08;101526.81;;;21.14;60.97
53960;BME280;39866;48.638;-2.020;2023-07-30T07:57:33;101535.34;;;21.22;60.77
53960;BME280;39866;48.638;-2.020;2023-07-30T07:59:59;101533.78;;;21.18;60.63
53960;BME280;39866;48.638;-2.020;2023-07-30T08:02:24;101543.19;;;21.26;60.43
53960;BME280;39866;48.638;-2.020;2023-07-30T08:04:49;101542.53;;;21.23;60.74
53960;BME280;39866;48.638;-2.020;2023-07-30T08:07:15;101547.56;;;21.29;60.60
53960;BME280;39866;48.638;-2.020;2023-07-30T08:09:40;101544.72;;;21.32;61.04
53960;BME280;39866;48.638;-2.020;2023-07-30T08:12:06;101555.53;;;21.32;60.68
53960;BME280;39866;48.638;-2.020;2023-07-30T08:14:31;101543.09;;;21.44;60.22
53960;BME280;39866;48.638;-2.020;2023-07-30T08:16:56;101547.72;;;21.42;60.12
53960;BME280;39866;48.638;-2.020;2023-07-30T08:19:22;101544.19;;;21.56;60.22
53960;BME280;39866;48.638;-2.020;2023-07-30T08:21:47;101549.97;;;21.49;60.44
53960;BME280;39866;48.638;-2.020;2023-07-30T08:24:12;101551.03;;;21.61;60.14
53960;BME280;39866;48.638;-2.020;2023-07-30T08:26:38;101564.00;;;21.56;60.10
53960;BME280;39866;48.638;-2.020;2023-07-30T08:29:03;101554.41;;;21.50;59.73
53960;BME280;39866;48.638;-2.020;2023-07-30T08:31:28;101558.78;;;21.53;60.19
53960;BME280;39866;48.638;-2.020;2023-07-30T08:33:54;101564.19;;;21.53;60.29
53960;BME280;39866;48.638;-2.020;2023-07-30T08:36:19;101559.47;;;21.57;59.82
53960;BME280;39866;48.638;-2.020;2023-07-30T08:38:44;101559.94;;;21.63;60.10
53960;BME280;39866;48.638;-2.020;2023-07-30T08:41:10;101565.56;;;21.74;59.71
53960;BME280;39866;48.638;-2.020;2023-07-30T08:43:35;101570.81;;;21.77;60.26
53960;BME280;39866;48.638;-2.020;2023-07-30T08:46:01;101558.00;;;21.80;60.25
53960;BME280;39866;48.638;-2.020;2023-07-30T08:48:27;101558.22;;;21.76;60.08
53960;BME280;39866;48.638;-2.020;2023-07-30T08:50:56;101558.59;;;21.70;60.04
53960;BME280;39866;48.638;-2.020;2023-07-30T08:53:24;101562.09;;;21.87;59.95
53960;BME280;39866;48.638;-2.020;2023-07-30T08:55:49;101552.03;;;21.89;60.29
53960;BME280;39866;48.638;-2.020;2023-07-30T08:58:15;101558.88;;;21.94;59.82
53960;BME280;39866;48.638;-2.020;2023-07-30T09:00:42;101567.03;;;21.94;59.99
53960;BME280;39866;48.638;-2.020;2023-07-30T09:03:08;101556.00;;;21.97;60.03
53960;BME280;39866;48.638;-2.020;2023-07-30T09:05:33;101566.53;;;22.02;59.86
53960;BME280;39866;48.638;-2.020;2023-07-30T09:07:59;101566.53;;;22.02;59.62
53960;BME280;39866;48.638;-2.020;2023-07-30T09:10:25;101566.84;;;21.97;59.70
53960;BME280;39866;48.638;-2.020;2023-07-30T09:12:56;101558.59;;;21.99;60.03
53960;BME280;39866;48.638;-2.020;2023-07-30T09:15:36;101561.97;;;22.02;59.92
53960;BME280;39866;48.638;-2.020;2023-07-30T09:18:06;101574.00;;;21.98;59.90
53960;BME280;39866;48.638;-2.020;2023-07-30T09:20:41;101571.00;;;22.03;60.19
53960;BME280;39866;48.638;-2.020;2023-07-30T09:23:08;101579.69;;;22.08;60.06
53960;BME280;39866;48.638;-2.020;2023-07-30T09:25:34;101582.63;;;22.19;60.08
53960;BME280;39866;48.638;-2.020;2023-07-30T09:28:00;101567.09;;;22.36;59.76
53960;BME280;39866;48.638;-2.020;2023-07-30T09:30:26;101580.06;;;22.45;59.49
53960;BME280;39866;48.638;-2.020;2023-07-30T09:32:56;101568.47;;;22.43;59.58
53960;BME280;39866;48.638;-2.020;2023-07-30T09:35:23;101575.91;;;22.39;59.40
53960;BME280;39866;48.638;-2.020;2023-07-30T09:38:02;101574.63;;;22.45;59.26
53960;BME280;39866;48.638;-2.020;2023-07-30T09:40:35;101572.34;;;22.39;59.64
53960;BME280;39866;48.638;-2.020;2023-07-30T09:43:05;101576.22;;;22.35;59.55
53960;BME280;39866;48.638;-2.020;2023-07-30T09:45:33;101585.72;;;22.42;58.95
53960;BME280;39866;48.638;-2.020;2023-07-30T09:48:00;101587.63;;;22.54;58.89
53960;BME280;39866;48.638;-2.020;2023-07-30T09:50:27;101579.84;;;22.62;59.01
53960;BME280;39866;48.638;-2.020;2023-07-30T09:52:54;101580.72;;;22.63;58.89
53960;BME280;39866;48.638;-2.020;2023-07-30T09:55:19;101583.75;;;22.44;58.54
53960;BME280;39866;48.638;-2.020;2023-07-30T09:57:44;101592.38;;;22.50;59.29
53960;BME280;39866;48.638;-2.020;2023-07-30T10:00:10;101592.28;;;22.52;59.74
53960;BME280;39866;48.638;-2.020;2023-07-30T10:02:41;101588.63;;;22.39;60.69
53960;BME280;39866;48.638;-2.020;2023-07-30T10:05:18;101602.59;;;22.18;62.64
53960;BME280;39866;48.638;-2.020;2023-07-30T10:07:59;101594.63;;;22.01;63.08
53960;BME280;39866;48.638;-2.020;2023-07-30T10:10:27;101591.31;;;21.96;63.03
53960;BME280;39866;48.638;-2.020;2023-07-30T10:12:55;101599.66;;;22.07;62.75
53960;BME280;39866;48.638;-2.020;2023-07-30T10:15:25;101597.13;;;22.33;62.52
53960;BME280;39866;48.638;-2.020;2023-07-30T10:17:56;101585.84;;;22.53;62.01
53960;BME280;39866;48.638;-2.020;2023-07-30T10:20:23;101590.22;;;22.56;61.34
53960;BME280;39866;48.638;-2.020;2023-07-30T10:22:58;101588.13;;;22.73;60.71
53960;BME280;39866;48.638;-2.020;2023-07-30T10:25:46;101583.06;;;22.82;60.30
53960;BME280;39866;48.638;-2.020;2023-07-30T10:31:00;101584.81;;;23.10;59.78
53960;BME280;39866;48.638;-2.020;2023-07-30T10:33:46;101587.84;;;23.05;59.07
53960;BME280;39866;48.638;-2.020;2023-07-30T10:36:12;101587.84;;;23.05;58.67
53960;BME280;39866;48.638;-2.020;2023-07-30T10:38:38;101591.59;;;23.17;58.99
53960;BME280;39866;48.638;-2.020;2023-07-30T10:41:09;101591.59;;;23.17;58.99
53960;BME280;39866;48.638;-2.020;2023-07-30T10:43:38;101588.06;;;23.42;58.23
53960;BME280;39866;48.638;-2.020;2023-07-30T10:46:04;101590.63;;;23.31;57.79
53960;BME280;39866;48.638;-2.020;2023-07-30T10:48:34;101591.81;;;23.27;57.57
53960;BME280;39866;48.638;-2.020;2023-07-30T10:51:01;101587.03;;;23.30;57.76
53960;BME280;39866;48.638;-2.020;2023-07-30T10:53:27;101583.59;;;23.28;57.73
53960;BME280;39866;48.638;-2.020;2023-07-30T10:55:52;101593.78;;;23.24;57.99
53960;BME280;39866;48.638;-2.020;2023-07-30T10:58:18;101580.00;;;23.28;57.74
53960;BME280;39866;48.638;-2.020;2023-07-30T11:00:43;101596.06;;;23.31;57.66
53960;BME280;39866;48.638;-2.020;2023-07-30T11:03:09;101593.16;;;23.34;57.95
53960;BME280;39866;48.638;-2.020;2023-07-30T11:05:34;101602.50;;;23.42;57.58
53960;BME280;39866;48.638;-2.020;2023-07-30T11:08:02;101593.81;;;23.37;58.00
53960;BME280;39866;48.638;-2.020;2023-07-30T11:10:28;101595.84;;;23.34;57.67
53960;BME280;39866;48.638;-2.020;2023-07-30T11:12:53;101595.53;;;23.38;57.46
53960;BME280;39866;48.638;-2.020;2023-07-30T11:15:19;101597.31;;;23.39;56.95
53960;BME280;39866;48.638;-2.020;2023-07-30T11:17:44;101596.38;;;23.26;57.26
53960;BME280;39866;48.638;-2.020;2023-07-30T11:20:27;101596.63;;;23.23;57.21
53960;BME280;39866;48.638;-2.020;2023-07-30T11:22:53;101592.41;;;23.32;57.86
53960;BME280;39866;48.638;-2.020;2023-07-30T11:25:19;101594.81;;;23.49;57.70
53960;BME280;39866;48.638;-2.020;2023-07-30T11:27:49;101586.13;;;23.57;57.49
53960;BME280;39866;48.638;-2.020;2023-07-30T11:30:14;101594.38;;;23.55;56.94
53960;BME280;39866;48.638;-2.020;2023-07-30T11:32:42;101589.91;;;23.54;56.04
53960;BME280;39866;48.638;-2.020;2023-07-30T11:35:08;101598.22;;;23.65;56.13
53960;BME280;39866;48.638;-2.020;2023-07-30T11:37:34;101594.66;;;23.78;56.47
53960;BME280;39866;48.638;-2.020;2023-07-30T11:40:00;101604.75;;;23.76;56.01
53960;BME280;39866;48.638;-2.020;2023-07-30T11:42:26;101606.91;;;23.96;55.57
53960;BME280;39866;48.638;-2.020;2023-07-30T11:44:55;101596.16;;;23.82;55.43
53960;BME280;39866;48.638;-2.020;2023-07-30T11:47:21;101600.41;;;23.98;55.09
53960;BME280;39866;48.638;-2.020;2023-07-30T11:49:57;101594.72;;;24.14;55.04
53960;BME280;39866;48.638;-2.020;2023-07-30T11:52:22;101593.03;;;24.01;55.15
53960;BME280;39866;48.638;-2.020;2023-07-30T11:54:48;101586.78;;;24.11;54.79
53960;BME280;39866;48.638;-2.020;2023-07-30T11:57:13;101594.72;;;24.14;55.13
53960;BME280;39866;48.638;-2.020;2023-07-30T11:59:39;101593.22;;;23.97;55.18
53960;BME280;39866;48.638;-2.020;2023-07-30T12:02:07;101597.25;;;23.92;55.56
53960;BME280;39866;48.638;-2.020;2023-07-30T12:04:45;101601.28;;;23.86;55.22
53960;BME280;39866;48.638;-2.020;2023-07-30T12:07:10;101586.94;;;23.97;55.58
53960;BME280;39866;48.638;-2.020;2023-07-30T12:09:36;101594.09;;;23.98;55.78
53960;BME280;39866;48.638;-2.020;2023-07-30T12:12:03;101587.44;;;24.15;55.35
53960;BME280;39866;48.638;-2.020;2023-07-30T12:15:09;101596.06;;;24.09;55.92
53960;BME280;39866;48.638;-2.020;2023-07-30T12:17:27;101593.44;;;24.07;55.93
53960;BME280;39866;48.638;-2.020;2023-07-30T12:19:53;101597.91;;;23.95;56.36
53960;BME280;39866;48.638;-2.020;2023-07-30T12:22:18;101605.50;;;24.03;55.73
53960;BME280;39866;48.638;-2.020;2023-07-30T12:24:43;101601.81;;;24.17;55.36
53960;BME280;39866;48.638;-2.020;2023-07-30T12:27:08;101602.13;;;24.12;55.68
53960;BME280;39866;48.638;-2.020;2023-07-30T12:29:34;101597.97;;;24.19;55.67
53960;BME280;39866;48.638;-2.020;2023-07-30T12:31:59;101597.56;;;24.26;56.19
53960;BME280;39866;48.638;-2.020;2023-07-30T12:34:25;101609.00;;;24.18;55.50
53960;BME280;39866;48.638;-2.020;2023-07-30T12:36:50;101601.69;;;24.18;56.09
53960;BME280;39866;48.638;-2.020;2023-07-30T12:39:15;101596.69;;;24.25;56.35